PGUM/GUM METAR and TAF weather

Enter ICAO airport designator
Station Type Date Time Source
PGUM METAR 2021/05/10 01:54 UTC NOAA

PGUM 100154Z 08011KT 10SM FEW025 SCT090 29/24 A2986 RMK AO2 RAB12E34 SLP102 P0002 T02940239


Station Type Date Time Source
PGUM Decoded METAR 2021/05/10 01:54 UTC NOAA

Agana, Guam International Airport, GU, United States (PGUM) 13-29N 144-48E
May 09, 2021 - 09:54 PM EDT / 2021.05.10 0154 UTC
Wind: from the E (080 degrees) at 13 MPH (11 KT):0
Visibility: 10 mile(s):0
Sky conditions: partly cloudy
Precipitation last hour: 0.02 inches
Temperature: 84.9 F (29.4 C)
Dew Point: 75.0 F (23.9 C)
Relative Humidity: 72%
Pressure (altimeter): 29.86 in. Hg (1011 hPa)
ob: PGUM 100154Z 08011KT 10SM FEW025 SCT090 29/24 A2986 RMK AO2 RAB12E34 SLP102 P0002 T02940239
cycle: 2

Station Type Date Time Source
PGUM TAF 2021/05/09 18:25 UTC NOAA

TAF PGUM 091721Z 0918/1024 08008KT P6SM VCSH FEW020 SCT040
FM100000 08014G22KT P6SM VCSH SCT020 SCT040
FM100800 08008KT P6SM VCSH SCT020 SCT040

Example: see airport list